CAP5078 PATK-PANC
Flight info
| Callsign | CAP5078 |
|---|---|
| Flight time | N/A |
| Altitude | 8000 |
| Route | PATK PANC DIRECT |
| Aircraft | PA44/L-VGD/C |
Departure
| Time | 2026-04-25 03:16 |
|---|---|
| Airport | Talkeetna Airport (PATK) |
Arrival
| Time | N/A |
|---|---|
| Airport | Ted Stevens Anchorage International Airport (PANC) |
| Time | Latitude | Longitude | Altitude | Speed | Heading |
|---|---|---|---|---|---|
| 2026-04-25 03:02 | 62.32120 | -150.09634 | 347 ft | 0 kts | 111° |
| 2026-04-25 03:10 | 62.32120 | -150.09631 | 347 ft | 1 kts | 112° |
| 2026-04-25 03:11 | 62.32099 | -150.09589 | 347 ft | 5 kts | 149° |
| 2026-04-25 03:11 | 62.32079 | -150.09518 | 347 ft | 8 kts | 76° |
| 2026-04-25 03:11 | 62.32132 | -150.09439 | 348 ft | 12 kts | 26° |
| 2026-04-25 03:11 | 62.32206 | -150.09357 | 350 ft | 14 kts | 25° |
| 2026-04-25 03:12 | 62.32292 | -150.09264 | 351 ft | 17 kts | 28° |
| 2026-04-25 03:12 | 62.32390 | -150.09155 | 351 ft | 18 kts | 27° |
| 2026-04-25 03:12 | 62.32481 | -150.09056 | 352 ft | 14 kts | 27° |
| 2026-04-25 03:12 | 62.32556 | -150.08972 | 354 ft | 14 kts | 27° |
| 2026-04-25 03:13 | 62.32578 | -150.08881 | 354 ft | 0 kts | 110° |
| 2026-04-25 03:15 | 62.32573 | -150.08861 | 354 ft | 6 kts | 121° |
| 2026-04-25 03:16 | 62.32484 | -150.08890 | 354 ft | 41 kts | 207° |
| 2026-04-25 03:16 | 62.32041 | -150.09378 | 388 ft | 95 kts | 206° |
| 2026-04-25 03:16 | 62.31475 | -150.09982 | 643 ft | 97 kts | 206° |
| 2026-04-25 03:16 | 62.30943 | -150.10553 | 1003 ft | 94 kts | 205° |
| 2026-04-25 03:17 | 62.30404 | -150.11148 | 1438 ft | 94 kts | 206° |
| 2026-04-25 03:17 | 62.29853 | -150.11757 | 1822 ft | 97 kts | 201° |
| 2026-04-25 03:17 | 62.29260 | -150.11795 | 2195 ft | 95 kts | 156° |
| 2026-04-25 03:17 | 62.28739 | -150.11200 | 2572 ft | 94 kts | 145° |
| 2026-04-25 03:18 | 62.28217 | -150.10490 | 2958 ft | 95 kts | 145° |
| 2026-04-25 03:18 | 62.27654 | -150.09863 | 3353 ft | 95 kts | 154° |
| 2026-04-25 03:18 | 62.27032 | -150.09424 | 3754 ft | 95 kts | 162° |
| 2026-04-25 03:18 | 62.26393 | -150.09134 | 4147 ft | 95 kts | 167° |
| 2026-04-25 03:19 | 62.25756 | -150.08937 | 4528 ft | 95 kts | 170° |
| 2026-04-25 03:19 | 62.25102 | -150.08964 | 4906 ft | 96 kts | 187° |
| 2026-04-25 03:19 | 62.24464 | -150.09283 | 5270 ft | 96 kts | 189° |
| 2026-04-25 03:19 | 62.23830 | -150.09650 | 5634 ft | 95 kts | 190° |
| 2026-04-25 03:20 | 62.23202 | -150.10034 | 5990 ft | 95 kts | 190° |
| 2026-04-25 03:20 | 62.22594 | -150.10416 | 6324 ft | 94 kts | 189° |
| 2026-04-25 03:20 | 62.22003 | -150.10794 | 6654 ft | 93 kts | 192° |
| 2026-04-25 03:20 | 62.21433 | -150.11160 | 6956 ft | 93 kts | 189° |
| 2026-04-25 03:21 | 62.20878 | -150.11522 | 7247 ft | 92 kts | 189° |
| 2026-04-25 03:21 | 62.20329 | -150.11877 | 7533 ft | 92 kts | 191° |
| 2026-04-25 03:21 | 62.19772 | -150.12239 | 7816 ft | 92 kts | 191° |
| 2026-04-25 03:21 | 62.19204 | -150.12604 | 7967 ft | 103 kts | 191° |
| 2026-04-25 03:22 | 62.18521 | -150.13043 | 7993 ft | 123 kts | 192° |
| 2026-04-25 03:22 | 62.17741 | -150.13553 | 8012 ft | 137 kts | 193° |
| 2026-04-25 03:22 | 62.16875 | -150.14123 | 8028 ft | 147 kts | 193° |
| 2026-04-25 03:22 | 62.15953 | -150.14732 | 8021 ft | 156 kts | 193° |
| 2026-04-25 03:23 | 62.15006 | -150.15355 | 7988 ft | 162 kts | 193° |
| 2026-04-25 03:23 | 62.14064 | -150.15973 | 7981 ft | 159 kts | 193° |
| 2026-04-25 03:23 | 62.13111 | -150.16602 | 7947 ft | 158 kts | 193° |
| 2026-04-25 03:23 | 62.12177 | -150.17210 | 7950 ft | 156 kts | 192° |
| 2026-04-25 03:24 | 62.11244 | -150.17821 | 7946 ft | 154 kts | 192° |
| 2026-04-25 03:24 | 62.10319 | -150.18422 | 7944 ft | 154 kts | 192° |
| 2026-04-25 03:24 | 62.09394 | -150.19022 | 7950 ft | 154 kts | 192° |
| 2026-04-25 03:24 | 62.08477 | -150.19618 | 7948 ft | 154 kts | 192° |
| 2026-04-25 03:25 | 62.07555 | -150.20222 | 7945 ft | 152 kts | 192° |
| 2026-04-25 03:25 | 62.06657 | -150.20807 | 7940 ft | 150 kts | 192° |
| 2026-04-25 03:25 | 62.05769 | -150.21384 | 7949 ft | 148 kts | 192° |
| 2026-04-25 03:25 | 62.04869 | -150.21965 | 7944 ft | 148 kts | 192° |
| 2026-04-25 03:26 | 62.03968 | -150.22549 | 7950 ft | 147 kts | 192° |
| 2026-04-25 03:26 | 62.03081 | -150.23125 | 7952 ft | 147 kts | 192° |
| 2026-04-25 03:26 | 62.02191 | -150.23702 | 7957 ft | 147 kts | 192° |
| 2026-04-25 03:26 | 62.01309 | -150.24272 | 7960 ft | 148 kts | 192° |
| 2026-04-25 03:27 | 62.00407 | -150.24857 | 7962 ft | 148 kts | 192° |
| 2026-04-25 03:27 | 61.99519 | -150.25430 | 7953 ft | 148 kts | 192° |
| 2026-04-25 03:27 | 61.98627 | -150.26006 | 7956 ft | 147 kts | 192° |
| 2026-04-25 03:27 | 61.97726 | -150.26588 | 7963 ft | 147 kts | 192° |
| 2026-04-25 03:28 | 61.96844 | -150.27159 | 7969 ft | 147 kts | 192° |
| 2026-04-25 03:28 | 61.95959 | -150.27733 | 7967 ft | 147 kts | 192° |
| 2026-04-25 03:28 | 61.95061 | -150.28316 | 7963 ft | 147 kts | 192° |
| 2026-04-25 03:28 | 61.94178 | -150.28888 | 7964 ft | 146 kts | 192° |
| 2026-04-25 03:29 | 61.93297 | -150.29454 | 7965 ft | 146 kts | 192° |
| 2026-04-25 03:29 | 61.92406 | -150.30026 | 7963 ft | 146 kts | 192° |
| 2026-04-25 03:29 | 61.91524 | -150.30595 | 7963 ft | 146 kts | 191° |
| 2026-04-25 03:29 | 61.90615 | -150.31178 | 7968 ft | 146 kts | 192° |
| 2026-04-25 03:30 | 61.89662 | -150.31790 | 7964 ft | 147 kts | 191° |
| 2026-04-25 03:30 | 61.88712 | -150.32400 | 7956 ft | 147 kts | 191° |
| 2026-04-25 03:30 | 61.87726 | -150.33031 | 7966 ft | 146 kts | 191° |
| 2026-04-25 03:30 | 61.86756 | -150.33656 | 7963 ft | 147 kts | 191° |
| 2026-04-25 03:31 | 61.85789 | -150.34268 | 7955 ft | 146 kts | 192° |
| 2026-04-25 03:31 | 61.84824 | -150.34895 | 7967 ft | 145 kts | 191° |
| 2026-04-25 03:31 | 61.83870 | -150.35599 | 7954 ft | 143 kts | 192° |
| 2026-04-25 03:31 | 61.82936 | -150.36269 | 7934 ft | 142 kts | 197° |
| 2026-04-25 03:32 | 61.82019 | -150.36983 | 7948 ft | 139 kts | 194° |
| 2026-04-25 03:32 | 61.81119 | -150.37645 | 7931 ft | 138 kts | 195° |
| 2026-04-25 03:32 | 61.80225 | -150.38307 | 7945 ft | 136 kts | 193° |
| 2026-04-25 03:32 | 61.79331 | -150.38968 | 7955 ft | 134 kts | 194° |
| 2026-04-25 03:33 | 61.78464 | -150.39609 | 7947 ft | 132 kts | 192° |
| 2026-04-25 03:33 | 61.77594 | -150.40260 | 7955 ft | 131 kts | 194° |
| 2026-04-25 03:33 | 61.76746 | -150.40895 | 7964 ft | 130 kts | 194° |
| 2026-04-25 03:33 | 61.75893 | -150.41533 | 7936 ft | 128 kts | 195° |
| 2026-04-25 03:34 | 61.75069 | -150.42156 | 7951 ft | 125 kts | 194° |
| 2026-04-25 03:34 | 61.74264 | -150.42760 | 7938 ft | 124 kts | 193° |
| 2026-04-25 03:34 | 61.73450 | -150.43390 | 7964 ft | 125 kts | 195° |
| 2026-04-25 03:34 | 61.72629 | -150.44023 | 7954 ft | 129 kts | 193° |
| 2026-04-25 03:35 | 61.71783 | -150.44699 | 7957 ft | 130 kts | 195° |
| 2026-04-25 03:35 | 61.70932 | -150.45355 | 7956 ft | 130 kts | 193° |
| 2026-04-25 03:35 | 61.70095 | -150.46011 | 7929 ft | 128 kts | 192° |
| 2026-04-25 03:35 | 61.69264 | -150.46640 | 7960 ft | 124 kts | 194° |
| 2026-04-25 03:36 | 61.68463 | -150.47241 | 7929 ft | 122 kts | 195° |
| 2026-04-25 03:36 | 61.67676 | -150.47841 | 7936 ft | 118 kts | 193° |
| 2026-04-25 03:36 | 61.66915 | -150.48441 | 7941 ft | 115 kts | 196° |
| 2026-04-25 03:36 | 61.66158 | -150.48703 | 7880 ft | 110 kts | 167° |
| 2026-04-25 03:37 | 61.65379 | -150.48361 | 7695 ft | 119 kts | 164° |
| 2026-04-25 03:37 | 61.64554 | -150.47926 | 7448 ft | 127 kts | 165° |
| 2026-04-25 03:37 | 61.63664 | -150.47458 | 7068 ft | 138 kts | 163° |
| 2026-04-25 03:37 | 61.62704 | -150.46964 | 6691 ft | 145 kts | 162° |
| 2026-04-25 03:38 | 61.61704 | -150.46460 | 6292 ft | 149 kts | 164° |
| 2026-04-25 03:38 | 61.60659 | -150.45924 | 5895 ft | 152 kts | 163° |
| 2026-04-25 03:38 | 61.59621 | -150.45389 | 5487 ft | 155 kts | 163° |
| 2026-04-25 03:38 | 61.58570 | -150.44864 | 5112 ft | 155 kts | 163° |
| 2026-04-25 03:39 | 61.57534 | -150.44374 | 4711 ft | 155 kts | 165° |
| 2026-04-25 03:39 | 61.56487 | -150.43858 | 4296 ft | 155 kts | 162° |
| 2026-04-25 03:39 | 61.55445 | -150.43382 | 3959 ft | 148 kts | 165° |
| 2026-04-25 03:39 | 61.54521 | -150.42950 | 3910 ft | 124 kts | 163° |
| 2026-04-25 03:40 | 61.53758 | -150.42644 | 3895 ft | 98 kts | 165° |
| 2026-04-25 03:40 | 61.53198 | -150.42456 | 3759 ft | 70 kts | 173° |
| 2026-04-25 03:40 | 61.52790 | -150.42514 | 2638 ft | 91 kts | 171° |
| 2026-04-25 03:40 | 61.52408 | -150.42673 | 1083 ft | 79 kts | 204° |
| 2026-04-25 03:41 | 61.52176 | -150.42769 | 96 ft | 0 kts | 269° |
| 2026-04-25 03:41 | 61.52176 | -150.42770 | 96 ft | 0 kts | 269° |